sensor_id;sensor_type;location;lat;lon;timestamp;P1;durP1;ratioP1;P2;durP2;ratioP2
60292;SDS011;52402;52.670;6.750;2023-11-19T00:00:38;112.75;;;103.65;;
60292;SDS011;52402;52.670;6.750;2023-11-19T00:03:04;109.40;;;100.45;;
60292;SDS011;52402;52.670;6.750;2023-11-19T00:05:30;111.65;;;102.47;;
60292;SDS011;52402;52.670;6.750;2023-11-19T00:07:56;107.65;;;98.85;;
60292;SDS011;52402;52.670;6.750;2023-11-19T00:10:22;108.97;;;99.88;;
60292;SDS011;52402;52.670;6.750;2023-11-19T00:12:48;114.07;;;104.82;;
60292;SDS011;52402;52.670;6.750;2023-11-19T00:15:15;113.32;;;104.03;;
60292;SDS011;52402;52.670;6.750;2023-11-19T00:17:44;119.10;;;109.72;;
60292;SDS011;52402;52.670;6.750;2023-11-19T00:20:11;118.53;;;109.22;;
60292;SDS011;52402;52.670;6.750;2023-11-19T00:22:37;109.63;;;100.72;;
60292;SDS011;52402;52.670;6.750;2023-11-19T00:25:03;110.10;;;101.20;;
60292;SDS011;52402;52.670;6.750;2023-11-19T00:27:31;116.32;;;107.03;;
60292;SDS011;52402;52.670;6.750;2023-11-19T00:29:57;113.38;;;104.22;;
60292;SDS011;52402;52.670;6.750;2023-11-19T00:32:23;112.05;;;103.03;;
60292;SDS011;52402;52.670;6.750;2023-11-19T00:34:49;126.38;;;116.88;;
60292;SDS011;52402;52.670;6.750;2023-11-19T00:37:14;113.30;;;104.20;;
60292;SDS011;52402;52.670;6.750;2023-11-19T00:39:40;116.60;;;107.43;;
60292;SDS011;52402;52.670;6.750;2023-11-19T00:42:06;111.38;;;102.25;;
60292;SDS011;52402;52.670;6.750;2023-11-19T00:44:32;114.93;;;105.65;;
60292;SDS011;52402;52.670;6.750;2023-11-19T00:47:01;117.35;;;107.95;;
60292;SDS011;52402;52.670;6.750;2023-11-19T00:49:30;117.35;;;108.15;;
60292;SDS011;52402;52.670;6.750;2023-11-19T00:51:57;113.18;;;104.30;;
60292;SDS011;52402;52.670;6.750;2023-11-19T00:54:29;108.53;;;99.78;;
60292;SDS011;52402;52.670;6.750;2023-11-19T00:56:55;117.75;;;108.45;;
60292;SDS011;52402;52.670;6.750;2023-11-19T00:59:26;118.85;;;109.38;;
60292;SDS011;52402;52.670;6.750;2023-11-19T01:01:54;115.10;;;105.80;;
60292;SDS011;52402;52.670;6.750;2023-11-19T01:04:22;108.10;;;99.05;;
60292;SDS011;52402;52.670;6.750;2023-11-19T01:06:49;109.45;;;100.55;;
60292;SDS011;52402;52.670;6.750;2023-11-19T01:09:15;104.78;;;96.15;;
60292;SDS011;52402;52.670;6.750;2023-11-19T01:11:40;113.18;;;104.18;;
60292;SDS011;52402;52.670;6.750;2023-11-19T01:14:06;113.45;;;104.45;;
60292;SDS011;52402;52.670;6.750;2023-11-19T01:16:32;111.22;;;102.22;;
60292;SDS011;52402;52.670;6.750;2023-11-19T01:18:57;117.82;;;108.55;;
60292;SDS011;52402;52.670;6.750;2023-11-19T01:21:25;120.20;;;110.82;;
60292;SDS011;52402;52.670;6.750;2023-11-19T01:23:51;107.40;;;98.68;;
60292;SDS011;52402;52.670;6.750;2023-11-19T01:26:16;111.53;;;102.57;;
60292;SDS011;52402;52.670;6.750;2023-11-19T01:28:42;109.68;;;100.78;;
60292;SDS011;52402;52.670;6.750;2023-11-19T01:31:11;111.43;;;102.45;;
60292;SDS011;52402;52.670;6.750;2023-11-19T01:33:39;109.57;;;100.75;;
60292;SDS011;52402;52.670;6.750;2023-11-19T01:36:06;107.78;;;99.03;;
60292;SDS011;52402;52.670;6.750;2023-11-19T01:38:40;113.68;;;104.60;;
60292;SDS011;52402;52.670;6.750;2023-11-19T01:41:08;118.35;;;109.07;;
60292;SDS011;52402;52.670;6.750;2023-11-19T01:43:39;118.13;;;108.82;;
60292;SDS011;52402;52.670;6.750;2023-11-19T01:46:11;114.13;;;105.07;;
60292;SDS011;52402;52.670;6.750;2023-11-19T01:48:39;117.75;;;108.55;;
60292;SDS011;52402;52.670;6.750;2023-11-19T01:51:12;116.72;;;107.53;;
60292;SDS011;52402;52.670;6.750;2023-11-19T01:53:43;117.07;;;107.78;;
60292;SDS011;52402;52.670;6.750;2023-11-19T01:56:10;117.80;;;108.55;;
60292;SDS011;52402;52.670;6.750;2023-11-19T01:58:38;124.30;;;114.80;;
60292;SDS011;52402;52.670;6.750;2023-11-19T02:01:06;125.80;;;116.15;;
60292;SDS011;52402;52.670;6.750;2023-11-19T02:03:32;123.45;;;113.95;;
60292;SDS011;52402;52.670;6.750;2023-11-19T02:06:01;114.97;;;105.88;;
60292;SDS011;52402;52.670;6.750;2023-11-19T02:08:33;115.60;;;106.40;;
60292;SDS011;52402;52.670;6.750;2023-11-19T02:10:59;132.55;;;122.75;;
60292;SDS011;52402;52.670;6.750;2023-11-19T02:13:29;129.93;;;120.15;;
60292;SDS011;52402;52.670;6.750;2023-11-19T02:15:55;123.13;;;113.70;;
60292;SDS011;52402;52.670;6.750;2023-11-19T02:18:24;126.63;;;117.03;;
60292;SDS011;52402;52.670;6.750;2023-11-19T02:20:58;134.18;;;124.28;;
60292;SDS011;52402;52.670;6.750;2023-11-19T02:23:27;137.30;;;127.30;;
60292;SDS011;52402;52.670;6.750;2023-11-19T02:28:33;129.38;;;119.70;;
60292;SDS011;52402;52.670;6.750;2023-11-19T02:31:00;136.63;;;126.72;;
60292;SDS011;52402;52.670;6.750;2023-11-19T02:33:26;130.35;;;120.60;;
60292;SDS011;52402;52.670;6.750;2023-11-19T02:35:51;127.90;;;118.35;;
60292;SDS011;52402;52.670;6.750;2023-11-19T02:38:17;127.03;;;117.47;;
60292;SDS011;52402;52.670;6.750;2023-11-19T02:40:42;139.68;;;129.57;;
60292;SDS011;52402;52.670;6.750;2023-11-19T02:43:08;130.48;;;120.93;;
60292;SDS011;52402;52.670;6.750;2023-11-19T02:45:34;135.27;;;125.53;;
60292;SDS011;52402;52.670;6.750;2023-11-19T02:48:00;129.00;;;119.53;;
60292;SDS011;52402;52.670;6.750;2023-11-19T02:50:27;136.57;;;126.75;;
60292;SDS011;52402;52.670;6.750;2023-11-19T02:52:53;132.77;;;123.18;;
60292;SDS011;52402;52.670;6.750;2023-11-19T02:55:21;134.57;;;124.82;;
60292;SDS011;52402;52.670;6.750;2023-11-19T02:57:51;127.25;;;117.85;;
60292;SDS011;52402;52.670;6.750;2023-11-19T03:00:21;133.02;;;123.43;;
60292;SDS011;52402;52.670;6.750;2023-11-19T03:03:00;137.57;;;127.78;;
60292;SDS011;52402;52.670;6.750;2023-11-19T03:05:42;119.63;;;110.72;;
60292;SDS011;52402;52.670;6.750;2023-11-19T03:08:09;121.13;;;112.13;;
60292;SDS011;52402;52.670;6.750;2023-11-19T03:10:35;127.40;;;118.15;;
60292;SDS011;52402;52.670;6.750;2023-11-19T03:13:01;131.80;;;122.43;;
60292;SDS011;52402;52.670;6.750;2023-11-19T03:15:27;127.63;;;118.40;;
60292;SDS011;52402;52.670;6.750;2023-11-19T03:17:52;121.97;;;113.18;;
60292;SDS011;52402;52.670;6.750;2023-11-19T03:20:19;116.53;;;108.03;;
60292;SDS011;52402;52.670;6.750;2023-11-19T03:22:45;122.90;;;114.25;;
60292;SDS011;52402;52.670;6.750;2023-11-19T03:25:11;127.72;;;119.03;;
60292;SDS011;52402;52.670;6.750;2023-11-19T03:27:38;120.40;;;112.00;;
60292;SDS011;52402;52.670;6.750;2023-11-19T03:30:06;108.55;;;100.75;;
60292;SDS011;52402;52.670;6.750;2023-11-19T03:32:37;109.45;;;101.70;;
60292;SDS011;52402;52.670;6.750;2023-11-19T03:35:04;120.47;;;112.30;;
60292;SDS011;52402;52.670;6.750;2023-11-19T03:37:32;114.85;;;106.95;;
60292;SDS011;52402;52.670;6.750;2023-11-19T03:40:05;111.05;;;103.35;;
60292;SDS011;52402;52.670;6.750;2023-11-19T03:42:37;110.03;;;102.28;;
60292;SDS011;52402;52.670;6.750;2023-11-19T03:45:05;116.25;;;108.35;;
60292;SDS011;52402;52.670;6.750;2023-11-19T03:47:36;114.88;;;107.10;;
60292;SDS011;52402;52.670;6.750;2023-11-19T03:50:06;109.25;;;101.85;;
60292;SDS011;52402;52.670;6.750;2023-11-19T03:52:33;111.75;;;104.25;;
60292;SDS011;52402;52.670;6.750;2023-11-19T03:55:04;108.95;;;101.55;;
60292;SDS011;52402;52.670;6.750;2023-11-19T03:57:30;108.47;;;101.07;;
60292;SDS011;52402;52.670;6.750;2023-11-19T03:59:56;100.72;;;93.63;;
60292;SDS011;52402;52.670;6.750;2023-11-19T04:02:23;104.07;;;96.80;;
60292;SDS011;52402;52.670;6.750;2023-11-19T04:04:53;106.63;;;99.30;;
60292;SDS011;52402;52.670;6.750;2023-11-19T04:07:19;103.30;;;96.20;;
60292;SDS011;52402;52.670;6.750;2023-11-19T04:09:45;93.78;;;86.97;;
60292;SDS011;52402;52.670;6.750;2023-11-19T04:12:11;94.35;;;87.57;;
60292;SDS011;52402;52.670;6.750;2023-11-19T04:14:37;88.25;;;81.65;;
60292;SDS011;52402;52.670;6.750;2023-11-19T04:17:03;85.35;;;78.95;;
60292;SDS011;52402;52.670;6.750;2023-11-19T04:19:28;91.10;;;84.50;;
60292;SDS011;52402;52.670;6.750;2023-11-19T04:21:54;87.45;;;80.97;;
60292;SDS011;52402;52.670;6.750;2023-11-19T04:24:19;88.13;;;81.68;;
60292;SDS011;52402;52.670;6.750;2023-11-19T04:26:45;83.68;;;77.47;;
60292;SDS011;52402;52.670;6.750;2023-11-19T04:29:15;82.95;;;76.82;;
60292;SDS011;52402;52.670;6.750;2023-11-19T04:31:42;87.07;;;80.70;;
60292;SDS011;52402;52.670;6.750;2023-11-19T04:34:10;85.75;;;79.45;;
60292;SDS011;52402;52.670;6.750;2023-11-19T04:36:36;89.07;;;82.68;;
60292;SDS011;52402;52.670;6.750;2023-11-19T04:39:07;85.80;;;79.60;;
60292;SDS011;52402;52.670;6.750;2023-11-19T04:41:49;88.03;;;81.70;;
60292;SDS011;52402;52.670;6.750;2023-11-19T04:44:17;89.80;;;83.35;;
60292;SDS011;52402;52.670;6.750;2023-11-19T04:46:45;89.68;;;83.30;;
60292;SDS011;52402;52.670;6.750;2023-11-19T04:49:14;85.72;;;79.55;;
60292;SDS011;52402;52.670;6.750;2023-11-19T04:51:51;89.57;;;83.27;;
60292;SDS011;52402;52.670;6.750;2023-11-19T04:54:21;88.55;;;82.35;;
60292;SDS011;52402;52.670;6.750;2023-11-19T04:56:47;87.53;;;81.35;;
60292;SDS011;52402;52.670;6.750;2023-11-19T04:59:12;83.22;;;77.22;;
60292;SDS011;52402;52.670;6.750;2023-11-19T05:01:38;87.05;;;80.95;;
60292;SDS011;52402;52.670;6.750;2023-11-19T05:04:04;89.55;;;83.35;;
60292;SDS011;52402;52.670;6.750;2023-11-19T05:06:30;87.47;;;81.38;;
60292;SDS011;52402;52.670;6.750;2023-11-19T05:08:59;84.63;;;78.68;;
60292;SDS011;52402;52.670;6.750;2023-11-19T05:11:26;81.90;;;76.10;;
60292;SDS011;52402;52.670;6.750;2023-11-19T05:13:53;83.25;;;77.38;;
60292;SDS011;52402;52.670;6.750;2023-11-19T05:16:19;82.07;;;76.20;;
60292;SDS011;52402;52.670;6.750;2023-11-19T05:18:47;80.88;;;75.07;;
60292;SDS011;52402;52.670;6.750;2023-11-19T05:21:15;77.18;;;71.57;;
60292;SDS011;52402;52.670;6.750;2023-11-19T05:23:42;80.05;;;74.38;;
60292;SDS011;52402;52.670;6.750;2023-11-19T05:26:21;75.40;;;70.00;;
60292;SDS011;52402;52.670;6.750;2023-11-19T05:28:48;86.75;;;80.95;;
60292;SDS011;52402;52.670;6.750;2023-11-19T05:31:14;84.40;;;78.70;;
60292;SDS011;52402;52.670;6.750;2023-11-19T05:33:40;77.22;;;71.82;;
60292;SDS011;52402;52.670;6.750;2023-11-19T05:36:06;76.25;;;70.85;;
60292;SDS011;52402;52.670;6.750;2023-11-19T05:38:33;71.25;;;66.07;;
60292;SDS011;52402;52.670;6.750;2023-11-19T05:40:59;81.32;;;75.82;;
60292;SDS011;52402;52.670;6.750;2023-11-19T05:43:25;79.82;;;74.28;;
60292;SDS011;52402;52.670;6.750;2023-11-19T05:45:50;82.82;;;77.13;;
60292;SDS011;52402;52.670;6.750;2023-11-19T05:48:16;82.10;;;76.50;;
60292;SDS011;52402;52.670;6.750;2023-11-19T05:50:42;78.07;;;72.68;;
60292;SDS011;52402;52.670;6.750;2023-11-19T05:53:07;73.82;;;68.63;;
60292;SDS011;52402;52.670;6.750;2023-11-19T05:55:38;71.05;;;66.00;;
60292;SDS011;52402;52.670;6.750;2023-11-19T05:58:11;69.55;;;64.57;;
60292;SDS011;52402;52.670;6.750;2023-11-19T06:00:40;63.72;;;59.03;;
60292;SDS011;52402;52.670;6.750;2023-11-19T06:03:06;64.15;;;59.40;;
60292;SDS011;52402;52.670;6.750;2023-11-19T06:05:32;66.07;;;61.28;;
60292;SDS011;52402;52.670;6.750;2023-11-19T06:07:58;65.30;;;60.50;;
60292;SDS011;52402;52.670;6.750;2023-11-19T06:10:24;63.58;;;58.88;;
60292;SDS011;52402;52.670;6.750;2023-11-19T06:12:55;63.13;;;58.53;;
60292;SDS011;52402;52.670;6.750;2023-11-19T06:15:25;60.92;;;56.42;;
60292;SDS011;52402;52.670;6.750;2023-11-19T06:17:52;61.13;;;56.63;;
60292;SDS011;52402;52.670;6.750;2023-11-19T06:20:17;63.08;;;58.47;;
60292;SDS011;52402;52.670;6.750;2023-11-19T06:22:45;56.75;;;52.45;;
60292;SDS011;52402;52.670;6.750;2023-11-19T06:25:11;58.05;;;53.65;;
60292;SDS011;52402;52.670;6.750;2023-11-19T06:27:37;60.70;;;56.20;;
60292;SDS011;52402;52.670;6.750;2023-11-19T06:30:03;61.42;;;56.83;;
60292;SDS011;52402;52.670;6.750;2023-11-19T06:32:28;62.92;;;58.33;;
60292;SDS011;52402;52.670;6.750;2023-11-19T06:34:54;63.05;;;58.53;;
60292;SDS011;52402;52.670;6.750;2023-11-19T06:37:20;64.88;;;60.28;;
60292;SDS011;52402;52.670;6.750;2023-11-19T06:39:46;67.68;;;62.97;;
60292;SDS011;52402;52.670;6.750;2023-11-19T06:42:11;65.40;;;60.80;;
60292;SDS011;52402;52.670;6.750;2023-11-19T06:44:37;66.07;;;61.47;;
60292;SDS011;52402;52.670;6.750;2023-11-19T06:47:02;66.75;;;62.15;;
60292;SDS011;52402;52.670;6.750;2023-11-19T06:49:28;70.75;;;65.95;;
60292;SDS011;52402;52.670;6.750;2023-11-19T06:51:53;64.53;;;59.92;;
60292;SDS011;52402;52.670;6.750;2023-11-19T06:54:19;68.88;;;64.15;;
60292;SDS011;52402;52.670;6.750;2023-11-19T06:56:45;71.80;;;66.90;;
60292;SDS011;52402;52.670;6.750;2023-11-19T06:59:10;77.18;;;72.18;;
60292;SDS011;52402;52.670;6.750;2023-11-19T07:01:36;78.00;;;72.95;;
60292;SDS011;52402;52.670;6.750;2023-11-19T07:04:02;69.13;;;64.35;;
60292;SDS011;52402;52.670;6.750;2023-11-19T07:06:34;68.20;;;63.50;;
60292;SDS011;52402;52.670;6.750;2023-11-19T07:09:00;62.58;;;58.17;;
60292;SDS011;52402;52.670;6.750;2023-11-19T07:11:34;64.85;;;60.25;;
60292;SDS011;52402;52.670;6.750;2023-11-19T07:14:01;73.00;;;68.03;;
60292;SDS011;52402;52.670;6.750;2023-11-19T07:16:27;68.72;;;63.92;;
60292;SDS011;52402;52.670;6.750;2023-11-19T07:18:53;65.32;;;60.63;;
60292;SDS011;52402;52.670;6.750;2023-11-19T07:21:19;76.13;;;70.93;;
60292;SDS011;52402;52.670;6.750;2023-11-19T07:23:46;73.35;;;68.32;;
60292;SDS011;52402;52.670;6.750;2023-11-19T07:26:12;65.32;;;60.53;;
60292;SDS011;52402;52.670;6.750;2023-11-19T07:28:37;63.40;;;58.90;;
60292;SDS011;52402;52.670;6.750;2023-11-19T07:31:06;70.32;;;65.32;;
60292;SDS011;52402;52.670;6.750;2023-11-19T07:33:34;75.97;;;70.78;;
60292;SDS011;52402;52.670;6.750;2023-11-19T07:36:00;70.30;;;65.32;;
60292;SDS011;52402;52.670;6.750;2023-11-19T07:38:26;66.45;;;61.65;;
60292;SDS011;52402;52.670;6.750;2023-11-19T07:40:51;68.55;;;63.55;;
60292;SDS011;52402;52.670;6.750;2023-11-19T07:43:17;71.28;;;66.28;;
60292;SDS011;52402;52.670;6.750;2023-11-19T07:45:42;66.28;;;61.47;;
60292;SDS011;52402;52.670;6.750;2023-11-19T07:48:11;63.80;;;59.20;;
60292;SDS011;52402;52.670;6.750;2023-11-19T07:50:38;63.75;;;59.15;;
60292;SDS011;52402;52.670;6.750;2023-11-19T07:53:06;62.67;;;58.08;;
60292;SDS011;52402;52.670;6.750;2023-11-19T07:55:32;64.25;;;59.65;;
60292;SDS011;52402;52.670;6.750;2023-11-19T07:57:58;64.57;;;59.95;;
60292;SDS011;52402;52.670;6.750;2023-11-19T08:00:24;64.60;;;59.95;;
60292;SDS011;52402;52.670;6.750;2023-11-19T08:02:49;62.90;;;58.35;;
60292;SDS011;52402;52.670;6.750;2023-11-19T08:05:15;68.07;;;63.28;;
60292;SDS011;52402;52.670;6.750;2023-11-19T08:07:40;63.55;;;58.95;;
60292;SDS011;52402;52.670;6.750;2023-11-19T08:10:06;65.85;;;61.25;;
60292;SDS011;52402;52.670;6.750;2023-11-19T08:12:35;62.30;;;57.78;;
60292;SDS011;52402;52.670;6.750;2023-11-19T08:15:02;59.95;;;55.63;;
60292;SDS011;52402;52.670;6.750;2023-11-19T08:17:27;57.65;;;53.38;;
60292;SDS011;52402;52.670;6.750;2023-11-19T08:19:53;56.50;;;52.30;;
60292;SDS011;52402;52.670;6.750;2023-11-19T08:22:19;55.72;;;51.53;;
60292;SDS011;52402;52.670;6.750;2023-11-19T08:24:44;60.63;;;56.13;;
60292;SDS011;52402;52.670;6.750;2023-11-19T08:27:10;61.05;;;56.60;;
60292;SDS011;52402;52.670;6.750;2023-11-19T08:29:35;61.60;;;57.10;;
60292;SDS011;52402;52.670;6.750;2023-11-19T08:32:01;56.03;;;51.83;;
60292;SDS011;52402;52.670;6.750;2023-11-19T08:34:28;57.42;;;53.22;;
60292;SDS011;52402;52.670;6.750;2023-11-19T08:36:54;61.15;;;56.75;;
60292;SDS011;52402;52.670;6.750;2023-11-19T08:39:20;68.82;;;64.13;;
60292;SDS011;52402;52.670;6.750;2023-11-19T08:41:46;67.32;;;62.63;;
60292;SDS011;52402;52.670;6.750;2023-11-19T08:44:13;70.88;;;65.97;;
60292;SDS011;52402;52.670;6.750;2023-11-19T08:46:47;71.30;;;66.30;;
60292;SDS011;52402;52.670;6.750;2023-11-19T08:49:14;68.30;;;63.47;;
60292;SDS011;52402;52.670;6.750;2023-11-19T08:51:40;66.82;;;62.13;;
60292;SDS011;52402;52.670;6.750;2023-11-19T08:54:06;68.97;;;64.18;;
60292;SDS011;52402;52.670;6.750;2023-11-19T08:56:32;70.18;;;65.32;;
60292;SDS011;52402;52.670;6.750;2023-11-19T08:58:59;68.18;;;63.40;;
60292;SDS011;52402;52.670;6.750;2023-11-19T09:01:25;68.75;;;63.95;;
60292;SDS011;52402;52.670;6.750;2023-11-19T09:03:51;66.97;;;62.28;;
60292;SDS011;52402;52.670;6.750;2023-11-19T09:06:17;64.93;;;60.30;;
60292;SDS011;52402;52.670;6.750;2023-11-19T09:08:42;60.78;;;56.28;;
60292;SDS011;52402;52.670;6.750;2023-11-19T09:11:09;60.60;;;56.20;;
60292;SDS011;52402;52.670;6.750;2023-11-19T09:13:35;60.03;;;55.65;;
60292;SDS011;52402;52.670;6.750;2023-11-19T09:16:01;60.67;;;56.28;;
60292;SDS011;52402;52.670;6.750;2023-11-19T09:18:29;57.88;;;53.58;;
60292;SDS011;52402;52.670;6.750;2023-11-19T09:21:01;55.58;;;51.38;;
60292;SDS011;52402;52.670;6.750;2023-11-19T09:23:27;54.58;;;50.45;;
60292;SDS011;52402;52.670;6.750;2023-11-19T09:25:55;54.70;;;50.50;;
60292;SDS011;52402;52.670;6.750;2023-11-19T09:28:25;54.22;;;50.03;;
60292;SDS011;52402;52.670;6.750;2023-11-19T09:30:50;53.30;;;49.20;;
60292;SDS011;52402;52.670;6.750;2023-11-19T09:33:16;52.85;;;48.85;;
60292;SDS011;52402;52.670;6.750;2023-11-19T09:35:42;55.08;;;50.92;;
60292;SDS011;52402;52.670;6.750;2023-11-19T09:38:08;54.30;;;50.17;;
60292;SDS011;52402;52.670;6.750;2023-11-19T09:40:34;54.13;;;50.00;;
60292;SDS011;52402;52.670;6.750;2023-11-19T09:42:59;53.15;;;49.15;;
60292;SDS011;52402;52.670;6.750;2023-11-19T09:45:26;54.38;;;50.28;;
60292;SDS011;52402;52.670;6.750;2023-11-19T09:47:57;54.05;;;49.95;;
60292;SDS011;52402;52.670;6.750;2023-11-19T09:50:25;53.50;;;49.40;;
60292;SDS011;52402;52.670;6.750;2023-11-19T09:52:51;54.60;;;50.40;;
60292;SDS011;52402;52.670;6.750;2023-11-19T09:55:17;54.55;;;50.45;;
60292;SDS011;52402;52.670;6.750;2023-11-19T09:57:43;52.08;;;48.00;;
60292;SDS011;52402;52.670;6.750;2023-11-19T10:00:09;54.30;;;50.20;;
60292;SDS011;52402;52.670;6.750;2023-11-19T10:02:36;52.10;;;48.10;;
60292;SDS011;52402;52.670;6.750;2023-11-19T10:05:06;54.50;;;50.35;;
60292;SDS011;52402;52.670;6.750;2023-11-19T10:07:33;51.10;;;47.15;;
60292;SDS011;52402;52.670;6.750;2023-11-19T10:10:02;51.85;;;47.85;;
60292;SDS011;52402;52.670;6.750;2023-11-19T10:12:32;51.03;;;47.13;;
60292;SDS011;52402;52.670;6.750;2023-11-19T10:14:58;50.25;;;46.35;;
60292;SDS011;52402;52.670;6.750;2023-11-19T10:17:42;48.60;;;44.70;;
60292;SDS011;52402;52.670;6.750;2023-11-19T10:20:08;50.33;;;46.33;;
60292;SDS011;52402;52.670;6.750;2023-11-19T10:22:36;54.08;;;49.97;;
60292;SDS011;52402;52.670;6.750;2023-11-19T10:25:03;51.40;;;47.50;;
60292;SDS011;52402;52.670;6.750;2023-11-19T10:27:29;57.00;;;52.90;;
60292;SDS011;52402;52.670;6.750;2023-11-19T10:29:58;54.13;;;50.13;;
60292;SDS011;52402;52.670;6.750;2023-11-19T10:32:24;53.10;;;49.15;;
60292;SDS011;52402;52.670;6.750;2023-11-19T10:34:50;52.13;;;48.22;;
60292;SDS011;52402;52.670;6.750;2023-11-19T10:37:27;52.65;;;48.72;;
60292;SDS011;52402;52.670;6.750;2023-11-19T10:39:54;51.13;;;47.22;;
60292;SDS011;52402;52.670;6.750;2023-11-19T10:42:20;52.95;;;48.95;;
60292;SDS011;52402;52.670;6.750;2023-11-19T10:44:46;52.92;;;48.92;;
60292;SDS011;52402;52.670;6.750;2023-11-19T10:47:13;50.88;;;46.97;;
60292;SDS011;52402;52.670;6.750;2023-11-19T10:49:40;51.45;;;47.47;;
60292;SDS011;52402;52.670;6.750;2023-11-19T10:52:07;51.40;;;47.40;;
60292;SDS011;52402;52.670;6.750;2023-11-19T10:54:36;48.30;;;44.50;;
60292;SDS011;52402;52.670;6.750;2023-11-19T10:57:06;47.85;;;44.13;;
60292;SDS011;52402;52.670;6.750;2023-11-19T10:59:34;49.55;;;45.75;;
60292;SDS011;52402;52.670;6.750;2023-11-19T11:02:03;50.47;;;46.58;;
60292;SDS011;52402;52.670;6.750;2023-11-19T11:04:36;49.75;;;45.95;;
60292;SDS011;52402;52.670;6.750;2023-11-19T11:09:31;48.78;;;44.97;;
60292;SDS011;52402;52.670;6.750;2023-11-19T11:11:57;46.67;;;43.08;;
60292;SDS011;52402;52.670;6.750;2023-11-19T11:14:24;49.75;;;46.00;;
60292;SDS011;52402;52.670;6.750;2023-11-19T11:16:50;48.00;;;44.30;;
60292;SDS011;52402;52.670;6.750;2023-11-19T11:19:18;48.92;;;45.13;;
60292;SDS011;52402;52.670;6.750;2023-11-19T11:21:45;46.63;;;42.92;;
60292;SDS011;52402;52.670;6.750;2023-11-19T11:32:43;45.67;;;42.08;;
60292;SDS011;52402;52.670;6.750;2023-11-19T11:35:27;48.67;;;44.97;;
60292;SDS011;52402;52.670;6.750;2023-11-19T11:38:22;47.42;;;43.83;;
60292;SDS011;52402;52.670;6.750;2023-11-19T11:43:45;46.45;;;42.85;;
60292;SDS011;52402;52.670;6.750;2023-11-19T11:49:00;56.67;;;52.65;;
60292;SDS011;52402;52.670;6.750;2023-11-19T11:52:27;59.17;;;55.00;;
60292;SDS011;52402;52.670;6.750;2023-11-19T11:57:07;66.50;;;61.90;;
60292;SDS011;52402;52.670;6.750;2023-11-19T12:02:05;65.38;;;60.88;;
60292;SDS011;52402;52.670;6.750;2023-11-19T12:04:34;58.90;;;54.70;;
60292;SDS011;52402;52.670;6.750;2023-11-19T12:07:07;59.10;;;54.92;;
60292;SDS011;52402;52.670;6.750;2023-11-19T12:09:37;60.47;;;56.17;;
60292;SDS011;52402;52.670;6.750;2023-11-19T12:12:20;61.30;;;56.90;;
60292;SDS011;52402;52.670;6.750;2023-11-19T12:17:36;63.30;;;58.80;;
60292;SDS011;52402;52.670;6.750;2023-11-19T12:20:05;61.58;;;57.17;;
60292;SDS011;52402;52.670;6.750;2023-11-19T12:22:39;60.45;;;56.15;;
60292;SDS011;52402;52.670;6.750;2023-11-19T12:27:33;57.53;;;53.33;;
60292;SDS011;52402;52.670;6.750;2023-11-19T12:30:00;57.08;;;52.88;;
60292;SDS011;52402;52.670;6.750;2023-11-19T12:32:36;56.90;;;52.75;;
60292;SDS011;52402;52.670;6.750;2023-11-19T12:35:11;56.10;;;52.00;;
60292;SDS011;52402;52.670;6.750;2023-11-19T12:37:41;57.13;;;53.03;;
60292;SDS011;52402;52.670;6.750;2023-11-19T12:40:12;54.67;;;50.67;;
60292;SDS011;52402;52.670;6.750;2023-11-19T12:42:41;53.60;;;49.70;;
60292;SDS011;52402;52.670;6.750;2023-11-19T12:45:07;53.35;;;49.53;;
60292;SDS011;52402;52.670;6.750;2023-11-19T12:47:44;51.40;;;47.60;;
60292;SDS011;52402;52.670;6.750;2023-11-19T12:50:17;53.40;;;49.50;;
60292;SDS011;52402;52.670;6.750;2023-11-19T12:52:55;55.60;;;51.60;;
60292;SDS011;52402;52.670;6.750;2023-11-19T12:55:25;52.85;;;48.95;;
60292;SDS011;52402;52.670;6.750;2023-11-19T12:57:53;52.13;;;48.22;;
60292;SDS011;52402;52.670;6.750;2023-11-19T13:00:21;52.47;;;48.58;;
60292;SDS011;52402;52.670;6.750;2023-11-19T13:07:51;51.05;;;47.25;;
60292;SDS011;52402;52.670;6.750;2023-11-19T13:10:24;48.95;;;45.25;;
60292;SDS011;52402;52.670;6.750;2023-11-19T13:13:05;49.35;;;45.65;;
60292;SDS011;52402;52.670;6.750;2023-11-19T13:15:36;51.15;;;47.35;;
60292;SDS011;52402;52.670;6.750;2023-11-19T13:18:02;52.25;;;48.42;;
60292;SDS011;52402;52.670;6.750;2023-11-19T13:20:28;49.58;;;45.88;;
60292;SDS011;52402;52.670;6.750;2023-11-19T13:22:57;52.65;;;48.85;;
60292;SDS011;52402;52.670;6.750;2023-11-19T13:25:26;52.17;;;48.38;;
60292;SDS011;52402;52.670;6.750;2023-11-19T13:27:53;52.53;;;48.72;;
60292;SDS011;52402;52.670;6.750;2023-11-19T13:30:21;56.10;;;52.10;;
60292;SDS011;52402;52.670;6.750;2023-11-19T13:32:48;57.13;;;53.13;;
60292;SDS011;52402;52.670;6.750;2023-11-19T13:35:14;51.65;;;47.85;;
60292;SDS011;52402;52.670;6.750;2023-11-19T13:37:40;49.75;;;46.00;;
60292;SDS011;52402;52.670;6.750;2023-11-19T13:40:09;53.30;;;49.40;;
60292;SDS011;52402;52.670;6.750;2023-11-19T13:42:38;48.40;;;44.75;;
60292;SDS011;52402;52.670;6.750;2023-11-19T13:45:07;49.92;;;46.22;;
60292;SDS011;52402;52.670;6.750;2023-11-19T13:47:35;50.55;;;46.80;;
60292;SDS011;52402;52.670;6.750;2023-11-19T13:50:01;52.95;;;49.08;;
60292;SDS011;52402;52.670;6.750;2023-11-19T13:52:31;55.47;;;51.47;;
60292;SDS011;52402;52.670;6.750;2023-11-19T13:54:56;60.33;;;56.13;;
60292;SDS011;52402;52.670;6.750;2023-11-19T13:57:22;58.75;;;54.55;;
60292;SDS011;52402;52.670;6.750;2023-11-19T13:59:47;61.13;;;56.83;;
60292;SDS011;52402;52.670;6.750;2023-11-19T14:02:13;59.03;;;54.83;;
60292;SDS011;52402;52.670;6.750;2023-11-19T14:04:38;61.25;;;56.92;;
60292;SDS011;52402;52.670;6.750;2023-11-19T14:07:06;62.65;;;58.25;;
60292;SDS011;52402;52.670;6.750;2023-11-19T14:09:32;63.58;;;59.17;;
60292;SDS011;52402;52.670;6.750;2023-11-19T14:12:00;61.63;;;57.22;;
60292;SDS011;52402;52.670;6.750;2023-11-19T14:16:55;62.65;;;58.25;;
60292;SDS011;52402;52.670;6.750;2023-11-19T14:19:21;64.68;;;60.17;;
60292;SDS011;52402;52.670;6.750;2023-11-19T14:21:49;66.85;;;62.25;;
60292;SDS011;52402;52.670;6.750;2023-11-19T14:24:15;74.13;;;69.25;;
60292;SDS011;52402;52.670;6.750;2023-11-19T14:26:45;74.28;;;69.38;;
60292;SDS011;52402;52.670;6.750;2023-11-19T14:29:15;73.20;;;68.35;;
60292;SDS011;52402;52.670;6.750;2023-11-19T14:31:40;75.38;;;70.38;;
60292;SDS011;52402;52.670;6.750;2023-11-19T14:34:06;75.53;;;70.43;;
60292;SDS011;52402;52.670;6.750;2023-11-19T14:36:32;77.22;;;72.13;;
60292;SDS011;52402;52.670;6.750;2023-11-19T14:38:57;77.70;;;72.60;;
60292;SDS011;52402;52.670;6.750;2023-11-19T14:41:24;80.93;;;75.63;;
60292;SDS011;52402;52.670;6.750;2023-11-19T14:43:49;80.43;;;75.18;;
60292;SDS011;52402;52.670;6.750;2023-11-19T14:46:15;83.32;;;77.93;;
60292;SDS011;52402;52.670;6.750;2023-11-19T14:48:41;89.38;;;83.68;;
60292;SDS011;52402;52.670;6.750;2023-11-19T14:51:07;82.10;;;76.75;;
60292;SDS011;52402;52.670;6.750;2023-11-19T14:53:33;82.03;;;76.53;;